Terminal Aerodrome Forecast
Issued by NWS

Home | Current Version | Previous Version | Graphics & Text | Print | Product List | Glossary On
Versions: 1 2 3 4 5 6 7 8 9 10 11 12
230
FTUS43 KTOP 301123
TAFFOE
TAF
KFOE 301123Z 3012/0112 01006KT P6SM SKC
     FM010900 00000KT 4SM BR SCT010=

USA.gov is the U.S. government's official web portal to all federal, state and local government web resources and services.